sensor_id;sensor_type;location;lat;lon;timestamp;pressure;altitude;pressure_sealevel;temperature;humidity
62438;BME280;48481;0.000;0.000;2023-05-07T00:02:22;101809.94;;;9.23;75.57
62438;BME280;48481;0.000;0.000;2023-05-07T00:04:48;101818.25;;;9.18;75.86
62438;BME280;48481;0.000;0.000;2023-05-07T00:07:14;101818.16;;;9.29;75.01
62438;BME280;48481;0.000;0.000;2023-05-07T00:09:40;101814.16;;;9.35;74.71
62438;BME280;48481;0.000;0.000;2023-05-07T00:12:05;101822.34;;;9.32;75.55
62438;BME280;48481;0.000;0.000;2023-05-07T00:14:31;101816.88;;;9.24;75.36
62438;BME280;48481;0.000;0.000;2023-05-07T00:16:56;101805.88;;;9.18;76.13
62438;BME280;48481;0.000;0.000;2023-05-07T00:19:21;101821.66;;;9.09;76.58
62438;BME280;48481;0.000;0.000;2023-05-07T00:21:47;101812.19;;;9.06;76.81
62438;BME280;48481;0.000;0.000;2023-05-07T00:24:12;101813.38;;;9.13;76.35
62438;BME280;48481;0.000;0.000;2023-05-07T00:26:37;101807.47;;;9.10;75.84
62438;BME280;48481;0.000;0.000;2023-05-07T00:29:03;101813.81;;;9.18;75.46
62438;BME280;48481;0.000;0.000;2023-05-07T00:31:28;101814.84;;;8.85;76.54
62438;BME280;48481;0.000;0.000;2023-05-07T00:33:54;101810.25;;;9.08;76.18
62438;BME280;48481;0.000;0.000;2023-05-07T00:36:19;101810.25;;;9.08;75.65
62438;BME280;48481;0.000;0.000;2023-05-07T00:38:44;101810.00;;;9.42;74.70
62438;BME280;48481;0.000;0.000;2023-05-07T00:41:10;101806.56;;;9.51;74.91
62438;BME280;48481;0.000;0.000;2023-05-07T00:43:35;101803.91;;;9.51;75.09
62438;BME280;48481;0.000;0.000;2023-05-07T00:46:00;101799.28;;;9.34;74.78
62438;BME280;48481;0.000;0.000;2023-05-07T00:48:27;101800.44;;;9.50;73.46
62438;BME280;48481;0.000;0.000;2023-05-07T00:50:53;101791.44;;;9.23;75.03
62438;BME280;48481;0.000;0.000;2023-05-07T00:53:18;101800.34;;;9.21;74.99
62438;BME280;48481;0.000;0.000;2023-05-07T00:55:44;101790.16;;;9.57;74.11
62438;BME280;48481;0.000;0.000;2023-05-07T00:58:09;101793.94;;;9.24;74.79
62438;BME280;48481;0.000;0.000;2023-05-07T01:00:35;101793.50;;;9.19;74.99
62438;BME280;48481;0.000;0.000;2023-05-07T01:03:01;101792.09;;;9.15;75.45
62438;BME280;48481;0.000;0.000;2023-05-07T01:05:27;101788.34;;;9.17;75.71
62438;BME280;48481;0.000;0.000;2023-05-07T01:07:55;101791.53;;;9.11;75.53
62438;BME280;48481;0.000;0.000;2023-05-07T01:10:22;101798.41;;;9.03;75.70
62438;BME280;48481;0.000;0.000;2023-05-07T01:12:48;101792.72;;;9.07;76.25
62438;BME280;48481;0.000;0.000;2023-05-07T01:15:14;101784.44;;;9.12;76.04
62438;BME280;48481;0.000;0.000;2023-05-07T01:17:41;101795.88;;;9.22;75.36
62438;BME280;48481;0.000;0.000;2023-05-07T01:20:08;101792.75;;;9.38;74.58
62438;BME280;48481;0.000;0.000;2023-05-07T01:22:37;101793.50;;;9.19;75.45
62438;BME280;48481;0.000;0.000;2023-05-07T01:25:04;101789.72;;;9.12;75.02
62438;BME280;48481;0.000;0.000;2023-05-07T01:27:29;101791.97;;;9.57;73.57
62438;BME280;48481;0.000;0.000;2023-05-07T01:29:55;101786.94;;;9.13;73.57
62438;BME280;48481;0.000;0.000;2023-05-07T01:32:38;101778.69;;;9.37;73.14
62438;BME280;48481;0.000;0.000;2023-05-07T01:35:07;101783.22;;;9.16;74.11
62438;BME280;48481;0.000;0.000;2023-05-07T01:37:35;101782.97;;;9.29;73.78
62438;BME280;48481;0.000;0.000;2023-05-07T01:40:01;101782.41;;;9.25;74.02
62438;BME280;48481;0.000;0.000;2023-05-07T01:42:28;101784.31;;;9.13;74.50
62438;BME280;48481;0.000;0.000;2023-05-07T01:44:54;101782.56;;;9.03;74.43
62438;BME280;48481;0.000;0.000;2023-05-07T01:47:20;101790.09;;;9.07;75.80
62438;BME280;48481;0.000;0.000;2023-05-07T01:49:46;101778.00;;;9.35;73.69
62438;BME280;48481;0.000;0.000;2023-05-07T01:52:11;101793.13;;;9.24;73.84
62438;BME280;48481;0.000;0.000;2023-05-07T01:54:37;101788.69;;;9.34;73.43
62438;BME280;48481;0.000;0.000;2023-05-07T01:57:02;101781.72;;;9.23;73.55
62438;BME280;48481;0.000;0.000;2023-05-07T01:59:28;101792.25;;;9.13;73.38
62438;BME280;48481;0.000;0.000;2023-05-07T02:01:53;101793.59;;;9.38;74.80
62438;BME280;48481;0.000;0.000;2023-05-07T02:04:18;101790.63;;;9.32;73.08
62438;BME280;48481;0.000;0.000;2023-05-07T02:06:44;101794.59;;;9.47;73.12
62438;BME280;48481;0.000;0.000;2023-05-07T02:09:09;101795.44;;;9.57;72.59
62438;BME280;48481;0.000;0.000;2023-05-07T02:11:35;101807.00;;;9.56;72.37
62438;BME280;48481;0.000;0.000;2023-05-07T02:14:00;101809.75;;;9.54;73.22
62438;BME280;48481;0.000;0.000;2023-05-07T02:16:26;101811.03;;;9.60;72.69
62438;BME280;48481;0.000;0.000;2023-05-07T02:18:51;101810.16;;;9.50;73.34
62438;BME280;48481;0.000;0.000;2023-05-07T02:21:17;101806.88;;;9.67;72.23
62438;BME280;48481;0.000;0.000;2023-05-07T02:23:42;101809.63;;;9.56;72.52
62438;BME280;48481;0.000;0.000;2023-05-07T02:26:08;101821.03;;;9.57;72.89
62438;BME280;48481;0.000;0.000;2023-05-07T02:28:33;101817.34;;;9.38;74.85
62438;BME280;48481;0.000;0.000;2023-05-07T02:31:02;101813.34;;;9.44;73.71
62438;BME280;48481;0.000;0.000;2023-05-07T02:33:28;101814.28;;;9.33;74.09
62438;BME280;48481;0.000;0.000;2023-05-07T02:35:53;101815.16;;;9.43;74.15
62438;BME280;48481;0.000;0.000;2023-05-07T02:38:18;101818.47;;;9.36;74.31
62438;BME280;48481;0.000;0.000;2023-05-07T02:40:44;101822.34;;;9.32;74.94
62438;BME280;48481;0.000;0.000;2023-05-07T02:43:09;101814.25;;;9.24;74.73
62438;BME280;48481;0.000;0.000;2023-05-07T02:45:35;101807.56;;;9.19;75.01
62438;BME280;48481;0.000;0.000;2023-05-07T02:48:02;101821.19;;;9.25;74.75
62438;BME280;48481;0.000;0.000;2023-05-07T02:50:28;101821.91;;;9.27;75.13
62438;BME280;48481;0.000;0.000;2023-05-07T02:52:53;101813.84;;;9.28;75.42
62438;BME280;48481;0.000;0.000;2023-05-07T02:55:19;101825.06;;;9.20;75.41
62438;BME280;48481;0.000;0.000;2023-05-07T02:57:45;101820.94;;;9.28;74.98
62438;BME280;48481;0.000;0.000;2023-05-07T03:00:14;101834.84;;;9.09;75.47
62438;BME280;48481;0.000;0.000;2023-05-07T03:02:41;101826.31;;;8.96;76.27
62438;BME280;48481;0.000;0.000;2023-05-07T03:05:06;101837.56;;;8.98;76.78
62438;BME280;48481;0.000;0.000;2023-05-07T03:07:32;101831.84;;;9.13;76.08
62438;BME280;48481;0.000;0.000;2023-05-07T03:09:57;101821.06;;;9.26;76.32
62438;BME280;48481;0.000;0.000;2023-05-07T03:12:23;101828.16;;;9.26;75.04
62438;BME280;48481;0.000;0.000;2023-05-07T03:14:48;101830.47;;;9.19;75.69
62438;BME280;48481;0.000;0.000;2023-05-07T03:17:13;101834.09;;;8.97;76.89
62438;BME280;48481;0.000;0.000;2023-05-07T03:19:39;101834.34;;;9.15;77.31
62438;BME280;48481;0.000;0.000;2023-05-07T03:22:04;101827.91;;;9.08;76.33
62438;BME280;48481;0.000;0.000;2023-05-07T03:24:29;101835.50;;;9.01;76.24
62438;BME280;48481;0.000;0.000;2023-05-07T03:26:56;101831.50;;;9.28;75.40
62438;BME280;48481;0.000;0.000;2023-05-07T03:29:23;101826.22;;;9.28;75.68
62438;BME280;48481;0.000;0.000;2023-05-07T03:31:48;101827.06;;;9.07;76.65
62438;BME280;48481;0.000;0.000;2023-05-07T03:34:13;101826.69;;;9.12;75.77
62438;BME280;48481;0.000;0.000;2023-05-07T03:36:39;101832.28;;;9.18;75.52
62438;BME280;48481;0.000;0.000;2023-05-07T03:39:04;101822.25;;;9.12;76.22
62438;BME280;48481;0.000;0.000;2023-05-07T03:41:30;101831.72;;;9.15;75.35
62438;BME280;48481;0.000;0.000;2023-05-07T03:43:55;101821.72;;;9.18;74.97
62438;BME280;48481;0.000;0.000;2023-05-07T03:46:20;101818.38;;;9.16;75.02
62438;BME280;48481;0.000;0.000;2023-05-07T03:48:46;101822.88;;;9.05;74.96
62438;BME280;48481;0.000;0.000;2023-05-07T03:51:11;101825.97;;;9.10;74.82
62438;BME280;48481;0.000;0.000;2023-05-07T03:53:37;101824.75;;;9.14;74.51
62438;BME280;48481;0.000;0.000;2023-05-07T03:56:02;101838.59;;;9.27;73.20
62438;BME280;48481;0.000;0.000;2023-05-07T03:58:27;101834.03;;;9.39;73.31
62438;BME280;48481;0.000;0.000;2023-05-07T04:00:53;101830.06;;;9.54;71.83
62438;BME280;48481;0.000;0.000;2023-05-07T04:03:18;101830.53;;;9.29;72.69
62438;BME280;48481;0.000;0.000;2023-05-07T04:05:44;101836.19;;;9.54;72.86
62438;BME280;48481;0.000;0.000;2023-05-07T04:08:09;101838.31;;;9.30;73.23
62438;BME280;48481;0.000;0.000;2023-05-07T04:10:35;101844.69;;;9.28;73.66
62438;BME280;48481;0.000;0.000;2023-05-07T04:13:00;101837.13;;;9.44;72.87
62438;BME280;48481;0.000;0.000;2023-05-07T04:15:25;101850.28;;;9.34;72.43
62438;BME280;48481;0.000;0.000;2023-05-07T04:17:51;101848.50;;;9.35;72.49
62438;BME280;48481;0.000;0.000;2023-05-07T04:20:17;101849.72;;;9.10;73.14
62438;BME280;48481;0.000;0.000;2023-05-07T04:22:43;101846.50;;;9.06;73.40
62438;BME280;48481;0.000;0.000;2023-05-07T04:25:08;101845.94;;;9.24;73.58
62438;BME280;48481;0.000;0.000;2023-05-07T04:27:35;101848.56;;;9.24;73.09
62438;BME280;48481;0.000;0.000;2023-05-07T04:30:01;101846.38;;;9.29;73.45
62438;BME280;48481;0.000;0.000;2023-05-07T04:32:28;101855.78;;;9.21;73.58
62438;BME280;48481;0.000;0.000;2023-05-07T04:34:54;101843.56;;;9.20;74.32
62438;BME280;48481;0.000;0.000;2023-05-07T04:37:21;101846.19;;;9.20;73.89
62438;BME280;48481;0.000;0.000;2023-05-07T04:39:47;101842.31;;;9.25;73.65
62438;BME280;48481;0.000;0.000;2023-05-07T04:42:18;101844.44;;;9.31;72.94
62438;BME280;48481;0.000;0.000;2023-05-07T04:44:44;101845.94;;;9.24;73.56
62438;BME280;48481;0.000;0.000;2023-05-07T04:47:10;101842.94;;;9.38;73.30
62438;BME280;48481;0.000;0.000;2023-05-07T04:49:36;101842.25;;;9.36;73.13
62438;BME280;48481;0.000;0.000;2023-05-07T04:52:02;101840.66;;;9.24;73.59
62438;BME280;48481;0.000;0.000;2023-05-07T04:54:28;101851.25;;;9.33;72.78
62438;BME280;48481;0.000;0.000;2023-05-07T04:56:55;101852.63;;;9.28;72.60
62438;BME280;48481;0.000;0.000;2023-05-07T04:59:21;101857.34;;;9.24;73.95
62438;BME280;48481;0.000;0.000;2023-05-07T05:01:46;101858.59;;;9.60;72.34
62438;BME280;48481;0.000;0.000;2023-05-07T05:04:11;101860.81;;;9.55;72.00
62438;BME280;48481;0.000;0.000;2023-05-07T05:06:38;101858.19;;;9.65;72.84
62438;BME280;48481;0.000;0.000;2023-05-07T05:09:03;101861.50;;;9.88;71.37
62438;BME280;48481;0.000;0.000;2023-05-07T05:11:30;101862.53;;;9.66;71.03
62438;BME280;48481;0.000;0.000;2023-05-07T05:13:55;101873.09;;;9.66;71.47
62438;BME280;48481;0.000;0.000;2023-05-07T05:16:21;101866.06;;;9.45;72.10
62438;BME280;48481;0.000;0.000;2023-05-07T05:18:47;101862.31;;;9.78;70.92
62438;BME280;48481;0.000;0.000;2023-05-07T05:21:12;101859.75;;;9.67;72.78
62438;BME280;48481;0.000;0.000;2023-05-07T05:23:38;101868.91;;;9.63;70.66
62438;BME280;48481;0.000;0.000;2023-05-07T05:26:04;101864.75;;;9.70;71.43
62438;BME280;48481;0.000;0.000;2023-05-07T05:28:29;101859.16;;;9.64;70.90
62438;BME280;48481;0.000;0.000;2023-05-07T05:30:55;101861.66;;;9.56;71.89
62438;BME280;48481;0.000;0.000;2023-05-07T05:33:20;101872.19;;;9.46;71.31
62438;BME280;48481;0.000;0.000;2023-05-07T05:35:45;101872.78;;;9.59;71.22
62438;BME280;48481;0.000;0.000;2023-05-07T05:38:11;101873.28;;;9.43;71.84
62438;BME280;48481;0.000;0.000;2023-05-07T05:40:36;101875.53;;;9.48;72.22
62438;BME280;48481;0.000;0.000;2023-05-07T05:43:02;101888.88;;;9.46;72.55
62438;BME280;48481;0.000;0.000;2023-05-07T05:45:27;101878.78;;;9.61;72.52
62438;BME280;48481;0.000;0.000;2023-05-07T05:47:52;101893.69;;;9.72;72.55
62438;BME280;48481;0.000;0.000;2023-05-07T05:50:18;101888.38;;;9.62;71.51
62438;BME280;48481;0.000;0.000;2023-05-07T05:52:43;101896.56;;;9.59;70.24
62438;BME280;48481;0.000;0.000;2023-05-07T05:55:09;101889.19;;;9.53;70.96
62438;BME280;48481;0.000;0.000;2023-05-07T05:57:34;101893.19;;;9.47;71.36
62438;BME280;48481;0.000;0.000;2023-05-07T06:00:01;101897.63;;;9.47;71.46
62438;BME280;48481;0.000;0.000;2023-05-07T06:02:27;101900.22;;;9.68;71.96
62438;BME280;48481;0.000;0.000;2023-05-07T06:04:53;101891.94;;;9.51;71.00
62438;BME280;48481;0.000;0.000;2023-05-07T06:07:18;101900.06;;;9.60;71.13
62438;BME280;48481;0.000;0.000;2023-05-07T06:09:44;101896.13;;;9.54;71.22
62438;BME280;48481;0.000;0.000;2023-05-07T06:12:09;101902.66;;;9.50;71.48
62438;BME280;48481;0.000;0.000;2023-05-07T06:14:34;101903.41;;;9.62;70.91
62438;BME280;48481;0.000;0.000;2023-05-07T06:17:00;101908.56;;;9.63;70.89
62438;BME280;48481;0.000;0.000;2023-05-07T06:19:25;101907.72;;;9.63;70.85
62438;BME280;48481;0.000;0.000;2023-05-07T06:21:51;101905.91;;;9.63;70.71
62438;BME280;48481;0.000;0.000;2023-05-07T06:24:17;101908.41;;;9.65;71.02
62438;BME280;48481;0.000;0.000;2023-05-07T06:26:42;101910.41;;;9.72;70.62
62438;BME280;48481;0.000;0.000;2023-05-07T06:29:08;101903.81;;;9.88;70.33
62438;BME280;48481;0.000;0.000;2023-05-07T06:31:33;101909.91;;;9.78;70.21
62438;BME280;48481;0.000;0.000;2023-05-07T06:33:58;101901.44;;;9.84;72.37
62438;BME280;48481;0.000;0.000;2023-05-07T06:36:24;101899.19;;;10.20;68.93
62438;BME280;48481;0.000;0.000;2023-05-07T06:38:50;101909.78;;;9.90;69.84
62438;BME280;48481;0.000;0.000;2023-05-07T06:41:15;101905.13;;;10.12;70.77
62438;BME280;48481;0.000;0.000;2023-05-07T06:43:40;101896.63;;;10.18;70.42
62438;BME280;48481;0.000;0.000;2023-05-07T06:46:06;101903.25;;;9.94;69.48
62438;BME280;48481;0.000;0.000;2023-05-07T06:48:31;101896.84;;;9.87;70.22
62438;BME280;48481;0.000;0.000;2023-05-07T06:50:57;101909.63;;;9.81;71.15
62438;BME280;48481;0.000;0.000;2023-05-07T06:53:23;101904.94;;;9.95;70.63
62438;BME280;48481;0.000;0.000;2023-05-07T06:55:49;101905.34;;;10.40;71.78
62438;BME280;48481;0.000;0.000;2023-05-07T06:58:14;101905.19;;;10.32;69.16
62438;BME280;48481;0.000;0.000;2023-05-07T07:00:39;101906.91;;;10.42;69.03
62438;BME280;48481;0.000;0.000;2023-05-07T07:03:06;101904.41;;;10.41;68.82
62438;BME280;48481;0.000;0.000;2023-05-07T07:05:31;101897.72;;;10.66;69.10
62438;BME280;48481;0.000;0.000;2023-05-07T07:07:57;101909.13;;;10.76;68.99
62438;BME280;48481;0.000;0.000;2023-05-07T07:10:22;101908.56;;;10.92;68.21
62438;BME280;48481;0.000;0.000;2023-05-07T07:12:48;101907.19;;;10.78;67.24
62438;BME280;48481;0.000;0.000;2023-05-07T07:15:14;101906.63;;;10.84;67.09
62438;BME280;48481;0.000;0.000;2023-05-07T07:17:40;101905.09;;;10.82;67.61
62438;BME280;48481;0.000;0.000;2023-05-07T07:20:06;101903.13;;;10.93;67.49
62438;BME280;48481;0.000;0.000;2023-05-07T07:22:31;101912.63;;;11.05;66.85
62438;BME280;48481;0.000;0.000;2023-05-07T07:24:57;101893.91;;;11.17;67.17
62438;BME280;48481;0.000;0.000;2023-05-07T07:27:23;101901.56;;;11.20;66.78
62438;BME280;48481;0.000;0.000;2023-05-07T07:29:48;101896.81;;;11.23;66.19
62438;BME280;48481;0.000;0.000;2023-05-07T07:32:14;101897.50;;;11.35;66.46
62438;BME280;48481;0.000;0.000;2023-05-07T07:34:39;101897.81;;;11.22;66.14
62438;BME280;48481;0.000;0.000;2023-05-07T07:37:04;101896.41;;;11.28;66.83
62438;BME280;48481;0.000;0.000;2023-05-07T07:39:34;101902.69;;;11.17;65.62
62438;BME280;48481;0.000;0.000;2023-05-07T07:42:00;101905.38;;;11.07;65.24
62438;BME280;48481;0.000;0.000;2023-05-07T07:44:27;101906.63;;;10.84;66.19
62438;BME280;48481;0.000;0.000;2023-05-07T07:46:53;101906.75;;;10.83;66.64
62438;BME280;48481;0.000;0.000;2023-05-07T07:49:18;101914.00;;;11.00;66.20
62438;BME280;48481;0.000;0.000;2023-05-07T07:51:44;101909.97;;;10.67;67.71
62438;BME280;48481;0.000;0.000;2023-05-07T07:54:10;101916.81;;;10.79;67.25
62438;BME280;48481;0.000;0.000;2023-05-07T07:56:35;101918.75;;;10.58;68.41
62438;BME280;48481;0.000;0.000;2023-05-07T07:59:01;101914.66;;;10.34;70.17
62438;BME280;48481;0.000;0.000;2023-05-07T08:01:27;101911.22;;;10.53;68.88
62438;BME280;48481;0.000;0.000;2023-05-07T08:03:52;101917.78;;;10.49;69.17
62438;BME280;48481;0.000;0.000;2023-05-07T08:06:18;101928.91;;;10.53;68.68
62438;BME280;48481;0.000;0.000;2023-05-07T08:08:44;101922.38;;;10.86;68.56
62438;BME280;48481;0.000;0.000;2023-05-07T08:11:09;101924.59;;;10.80;69.08
62438;BME280;48481;0.000;0.000;2023-05-07T08:13:36;101932.53;;;10.90;67.89
62438;BME280;48481;0.000;0.000;2023-05-07T08:16:02;101917.19;;;11.03;68.03
62438;BME280;48481;0.000;0.000;2023-05-07T08:18:27;101925.97;;;11.04;66.40
62438;BME280;48481;0.000;0.000;2023-05-07T08:20:54;101929.91;;;11.09;67.66
62438;BME280;48481;0.000;0.000;2023-05-07T08:23:20;101927.41;;;10.79;67.85
62438;BME280;48481;0.000;0.000;2023-05-07T08:25:45;101933.25;;;10.73;67.18
62438;BME280;48481;0.000;0.000;2023-05-07T08:28:11;101931.00;;;10.59;68.05
62438;BME280;48481;0.000;0.000;2023-05-07T08:30:36;101927.53;;;10.87;67.71
62438;BME280;48481;0.000;0.000;2023-05-07T08:33:01;101932.56;;;11.09;66.59
62438;BME280;48481;0.000;0.000;2023-05-07T08:35:27;101928.94;;;11.10;65.91
62438;BME280;48481;0.000;0.000;2023-05-07T08:37:53;101934.31;;;11.38;65.10
62438;BME280;48481;0.000;0.000;2023-05-07T08:40:18;101933.50;;;11.18;65.42
62438;BME280;48481;0.000;0.000;2023-05-07T08:42:44;101929.06;;;11.19;66.08
62438;BME280;48481;0.000;0.000;2023-05-07T08:45:11;101935.16;;;11.29;65.75
62438;BME280;48481;0.000;0.000;2023-05-07T08:47:42;101945.63;;;11.30;65.45
62438;BME280;48481;0.000;0.000;2023-05-07T08:50:10;101952.59;;;11.02;66.26
62438;BME280;48481;0.000;0.000;2023-05-07T08:52:36;101948.00;;;10.95;66.54
62438;BME280;48481;0.000;0.000;2023-05-07T08:55:02;101953.88;;;10.98;66.50
62438;BME280;48481;0.000;0.000;2023-05-07T08:57:28;101944.53;;;10.94;66.69
62438;BME280;48481;0.000;0.000;2023-05-07T08:59:54;101956.69;;;11.06;67.18
62438;BME280;48481;0.000;0.000;2023-05-07T09:02:20;101954.44;;;11.11;66.62
62438;BME280;48481;0.000;0.000;2023-05-07T09:04:45;101949.97;;;10.93;67.07
62438;BME280;48481;0.000;0.000;2023-05-07T09:07:11;101960.56;;;10.83;67.17
62438;BME280;48481;0.000;0.000;2023-05-07T09:09:37;101962.50;;;10.91;67.37
62438;BME280;48481;0.000;0.000;2023-05-07T09:12:02;101964.06;;;11.13;65.73
62438;BME280;48481;0.000;0.000;2023-05-07T09:14:29;101965.88;;;11.12;66.73
62438;BME280;48481;0.000;0.000;2023-05-07T09:16:56;101965.03;;;11.11;65.53
62438;BME280;48481;0.000;0.000;2023-05-07T09:19:25;101965.84;;;11.31;65.75
62438;BME280;48481;0.000;0.000;2023-05-07T09:21:58;101963.91;;;11.33;64.88
62438;BME280;48481;0.000;0.000;2023-05-07T09:24:24;101966.78;;;11.50;64.63
62438;BME280;48481;0.000;0.000;2023-05-07T09:26:50;101973.88;;;11.59;65.44
62438;BME280;48481;0.000;0.000;2023-05-07T09:29:15;101974.28;;;11.64;63.29
62438;BME280;48481;0.000;0.000;2023-05-07T09:31:42;101968.88;;;11.46;63.68
62438;BME280;48481;0.000;0.000;2023-05-07T09:34:07;101966.78;;;11.50;63.83
62438;BME280;48481;0.000;0.000;2023-05-07T09:36:33;101959.56;;;11.32;64.97
62438;BME280;48481;0.000;0.000;2023-05-07T09:39:01;101968.41;;;11.70;63.77
62438;BME280;48481;0.000;0.000;2023-05-07T09:41:30;101962.34;;;11.97;63.19
62438;BME280;48481;0.000;0.000;2023-05-07T09:43:56;101962.56;;;12.13;62.18
62438;BME280;48481;0.000;0.000;2023-05-07T09:46:30;101958.63;;;11.90;62.35
62438;BME280;48481;0.000;0.000;2023-05-07T09:48:57;101969.78;;;11.93;63.20
62438;BME280;48481;0.000;0.000;2023-05-07T09:51:36;101970.06;;;11.90;64.71
62438;BME280;48481;0.000;0.000;2023-05-07T09:54:04;101974.75;;;12.06;62.79
62438;BME280;48481;0.000;0.000;2023-05-07T09:56:30;101961.47;;;12.06;63.38
62438;BME280;48481;0.000;0.000;2023-05-07T09:58:59;101976.19;;;11.91;64.42
62438;BME280;48481;0.000;0.000;2023-05-07T10:01:25;101974.13;;;11.65;65.76
62438;BME280;48481;0.000;0.000;2023-05-07T10:03:52;101974.72;;;11.59;63.93
62438;BME280;48481;0.000;0.000;2023-05-07T10:06:19;101980.88;;;11.50;64.47
62438;BME280;48481;0.000;0.000;2023-05-07T10:08:45;101980.31;;;11.56;64.20
62438;BME280;48481;0.000;0.000;2023-05-07T10:11:12;101979.03;;;11.60;63.92
62438;BME280;48481;0.000;0.000;2023-05-07T10:13:40;101976.69;;;11.57;66.71
62438;BME280;48481;0.000;0.000;2023-05-07T10:16:06;101979.16;;;11.88;63.73
62438;BME280;48481;0.000;0.000;2023-05-07T10:18:32;101979.28;;;11.86;65.58
62438;BME280;48481;0.000;0.000;2023-05-07T10:21:13;101982.13;;;12.12;66.31
62438;BME280;48481;0.000;0.000;2023-05-07T10:23:44;101977.81;;;12.38;62.15
62438;BME280;48481;0.000;0.000;2023-05-07T10:26:11;101970.56;;;12.31;61.58
62438;BME280;48481;0.000;0.000;2023-05-07T10:28:39;101978.34;;;12.42;61.84
62438;BME280;48481;0.000;0.000;2023-05-07T10:33:45;101977.88;;;11.92;62.48
62438;BME280;48481;0.000;0.000;2023-05-07T10:36:12;101981.81;;;12.15;63.05
62438;BME280;48481;0.000;0.000;2023-05-07T10:38:37;101976.22;;;12.18;62.39
62438;BME280;48481;0.000;0.000;2023-05-07T10:41:04;101978.13;;;12.26;61.21
62438;BME280;48481;0.000;0.000;2023-05-07T10:43:44;101976.78;;;11.85;62.82
62438;BME280;48481;0.000;0.000;2023-05-07T10:46:19;101981.25;;;11.74;63.52
62438;BME280;48481;0.000;0.000;2023-05-07T10:51:27;101977.88;;;11.92;63.10
62438;BME280;48481;0.000;0.000;2023-05-07T10:56:38;101975.75;;;11.95;62.39
62438;BME280;48481;0.000;0.000;2023-05-07T11:02:04;101981.91;;;12.23;61.72
62438;BME280;48481;0.000;0.000;2023-05-07T11:04:31;101977.19;;;12.17;61.63
62438;BME280;48481;0.000;0.000;2023-05-07T11:15:11;101972.06;;;12.61;60.20
62438;BME280;48481;0.000;0.000;2023-05-07T11:17:54;101968.59;;;12.78;60.98
62438;BME280;48481;0.000;0.000;2023-05-07T11:20:20;101982.13;;;13.02;59.78
62438;BME280;48481;0.000;0.000;2023-05-07T11:22:49;101985.34;;;12.79;60.47
62438;BME280;48481;0.000;0.000;2023-05-07T11:25:18;101979.66;;;12.91;59.51
62438;BME280;48481;0.000;0.000;2023-05-07T11:27:46;101979.50;;;12.75;59.42
62438;BME280;48481;0.000;0.000;2023-05-07T11:30:21;101972.91;;;12.97;59.32
62438;BME280;48481;0.000;0.000;2023-05-07T11:32:47;101988.78;;;13.07;58.49
62438;BME280;48481;0.000;0.000;2023-05-07T11:35:15;101979.31;;;13.04;59.17
62438;BME280;48481;0.000;0.000;2023-05-07T11:37:40;101973.91;;;13.14;61.19
62438;BME280;48481;0.000;0.000;2023-05-07T11:40:08;101974.75;;;13.32;58.60
62438;BME280;48481;0.000;0.000;2023-05-07T11:42:37;101965.78;;;13.15;58.28
62438;BME280;48481;0.000;0.000;2023-05-07T11:45:04;101963.84;;;13.17;58.56
62438;BME280;48481;0.000;0.000;2023-05-07T11:47:30;101964.16;;;13.40;57.88
62438;BME280;48481;0.000;0.000;2023-05-07T11:49:56;101965.25;;;13.55;57.42
62438;BME280;48481;0.000;0.000;2023-05-07T11:52:24;101961.88;;;13.45;57.46
62438;BME280;48481;0.000;0.000;2023-05-07T11:54:54;101955.81;;;13.61;57.59
62438;BME280;48481;0.000;0.000;2023-05-07T11:57:26;101958.06;;;13.74;57.55
62438;BME280;48481;0.000;0.000;2023-05-07T11:59:56;101957.06;;;13.23;57.59
62438;BME280;48481;0.000;0.000;2023-05-07T12:02:22;101957.69;;;13.17;58.25
62438;BME280;48481;0.000;0.000;2023-05-07T12:04:50;101958.25;;;13.11;60.12
62438;BME280;48481;0.000;0.000;2023-05-07T12:07:16;101949.16;;;13.13;58.58
62438;BME280;48481;0.000;0.000;2023-05-07T12:09:42;101959.47;;;12.98;58.85
62438;BME280;48481;0.000;0.000;2023-05-07T12:12:08;101955.38;;;13.22;58.56
62438;BME280;48481;0.000;0.000;2023-05-07T12:14:38;101959.31;;;13.36;57.98
62438;BME280;48481;0.000;0.000;2023-05-07T12:17:05;101959.63;;;13.32;58.10
62438;BME280;48481;0.000;0.000;2023-05-07T12:19:31;101957.19;;;13.39;58.08
62438;BME280;48481;0.000;0.000;2023-05-07T12:21:57;101967.75;;;13.57;57.78
62438;BME280;48481;0.000;0.000;2023-05-07T12:24:22;101959.22;;;13.71;57.92
62438;BME280;48481;0.000;0.000;2023-05-07T12:26:48;101966.69;;;13.68;57.16
62438;BME280;48481;0.000;0.000;2023-05-07T12:29:13;101958.09;;;13.56;57.33
62438;BME280;48481;0.000;0.000;2023-05-07T12:31:43;101950.28;;;13.54;58.72
62438;BME280;48481;0.000;0.000;2023-05-07T12:34:10;101955.50;;;13.90;57.15
62438;BME280;48481;0.000;0.000;2023-05-07T12:36:37;101951.47;;;13.86;56.98
62438;BME280;48481;0.000;0.000;2023-05-07T12:39:05;101953.81;;;13.89;56.79
62438;BME280;48481;0.000;0.000;2023-05-07T12:41:36;101955.38;;;14.00;56.09
62438;BME280;48481;0.000;0.000;2023-05-07T12:44:04;101945.97;;;14.29;55.68
62438;BME280;48481;0.000;0.000;2023-05-07T12:46:29;101949.47;;;14.30;55.38
62438;BME280;48481;0.000;0.000;2023-05-07T12:48:55;101950.56;;;14.03;56.06
62438;BME280;48481;0.000;0.000;2023-05-07T12:51:20;101952.88;;;13.98;57.03
62438;BME280;48481;0.000;0.000;2023-05-07T12:53:45;101946.56;;;14.07;56.25
62438;BME280;48481;0.000;0.000;2023-05-07T12:56:11;101950.03;;;14.34;56.84
62438;BME280;48481;0.000;0.000;2023-05-07T12:58:36;101940.53;;;14.39;55.50
62438;BME280;48481;0.000;0.000;2023-05-07T13:01:07;101954.03;;;14.38;55.65
62438;BME280;48481;0.000;0.000;2023-05-07T13:03:34;101946.75;;;14.48;55.13
62438;BME280;48481;0.000;0.000;2023-05-07T13:06:01;101939.09;;;14.53;55.96
62438;BME280;48481;0.000;0.000;2023-05-07T13:08:32;101944.41;;;14.45;55.19
62438;BME280;48481;0.000;0.000;2023-05-07T13:10:59;101944.44;;;14.61;55.29
62438;BME280;48481;0.000;0.000;2023-05-07T13:13:32;101942.44;;;14.63;54.99
62438;BME280;48481;0.000;0.000;2023-05-07T13:15:58;101947.25;;;14.43;55.02
62438;BME280;48481;0.000;0.000;2023-05-07T13:18:25;101946.47;;;14.25;55.92
62438;BME280;48481;0.000;0.000;2023-05-07T13:20:52;101943.75;;;14.43;55.63